Have a Safe July 4th! 

Flight Track Log - Related Links

Times and Time Zones

All times are in EDT time to prevent confusion due to time zone crossing. See the KAL243 flight status page for this flight to view local times or setup timezone preferences in your user account.

Time Position Orientation Groundspeed Altitude Reporting Facility
EDT Latitude Longitude Course Direction KTS MPH feet Rate Location/Type
Sat 10:05:22 AM 37.3370 126.7000 75° East 385 443 11,700  Level FlightAware ADS-B
Sat 10:06:02 AM 37.3560 126.7940 76° East 407 468 13,100 2,047 Climbing FlightAware ADS-B
Sat 10:06:47 AM 37.3780 126.8990 75° East 422 486 14,600 2,118 Climbing FlightAware ADS-B
Sat 10:07:27 AM 37.3980 126.9950 75° East 429 494 16,100 2,250 Climbing FlightAware ADS-B
Sat 10:08:07 AM 37.4180 127.0950 76° East 437 503 17,600 2,047 Climbing FlightAware ADS-B
Sat 10:08:52 AM 37.4420 127.2100 75° East 449 517 19,000 1,875 Climbing FlightAware ADS-B
Sat 10:09:27 AM 37.4600 127.2990 76° East 456 525 20,100 1,765 Climbing FlightAware ADS-B
Sat 10:10:17 AM 37.4860 127.4290 76° East 468 539 21,500 1,667 Climbing FlightAware ADS-B
Sat 10:10:57 AM 37.4970 127.5370 83° East 478 550 22,600 1,553 Climbing FlightAware ADS-B
Sat 10:11:42 AM 37.5030 127.6660 87° East 488 562 23,700 1,482 Climbing FlightAware ADS-B
Sat 10:12:22 AM 37.5090 127.7770 86° East 493 567 24,700 1,500 Climbing FlightAware ADS-B
Sat 10:13:02 AM 37.5150 127.8940 86° East 495 570 25,700 1,412 Climbing FlightAware ADS-B
Sat 10:13:47 AM 37.5220 128.0220 86° East 500 575 26,700 776 Climbing FlightAware ADS-B
Sat 10:14:27 AM 37.5270 128.1230 86° East 501 577 26,800 75 Climbing FlightAware ADS-B
Sat 10:15:07 AM 37.5330 128.2220 86° East 501 577 26,800  Level FlightAware ADS-B
Sat 10:15:47 AM 37.5380 128.3210 86° East 501 577 26,800  Level FlightAware ADS-B
Sat 10:16:27 AM 37.5440 128.4210 86° East 501 577 26,800  Level FlightAware ADS-B
Sat 10:17:17 AM 37.5510 128.5440 86° East 501 577 26,800 141 Level FlightAware ADS-B
Sat 10:19:00 AM 37.7413 128.7204 104° East  Level Estimated
Sat 10:20:00 AM 37.8521 128.8236 98° East  Level Estimated
Sat 10:21:00 AM 37.7961 128.9826 114° Southeast  Level FlightAware Approximate
Sat 10:22:00 AM 37.7399 129.1414 114° Southeast  Level FlightAware Approximate
Sat 10:23:00 AM 37.6835 129.2999 114° Southeast  Level FlightAware Approximate
Sat 10:24:00 AM 37.7942 129.4032 95° East  Level Estimated
Sat 10:25:00 AM 37.9048 129.5067 99° East  Level Estimated
Sat 10:26:00 AM 37.8576 129.6703 110° East  Level FlightAware Approximate
Sat 10:27:00 AM 37.8102 129.8338 110° East  Level FlightAware Approximate
Sat 10:28:00 AM 37.7625 129.9970 110° East  Level FlightAware Approximate
Sat 10:29:00 AM 37.7146 130.1600 110° East  Level FlightAware Approximate
Sat 10:30:00 AM 37.6665 130.3228 110° East  Level FlightAware Approximate
Sat 10:31:00 AM 37.6182 130.4854 111° Southeast  Level FlightAware Approximate
Sat 10:32:00 AM 37.5697 130.6478 111° Southeast  Level FlightAware Approximate
Sat 10:33:00 AM 37.5209 130.8099 111° Southeast  Level FlightAware Approximate
Sat 10:34:00 AM 37.6314 130.9133 37° Northeast  Level Estimated
Sat 10:35:00 AM 37.6322 131.0869 90° East  Level FlightAware Approximate
Sat 10:36:00 AM 37.6329 131.2605 90° East  Level FlightAware Approximate
Sat 10:37:00 AM 37.7432 131.3642 84° East  Level Estimated
Sat 10:38:00 AM 37.7432 131.5381 90° East  Level FlightAware Approximate
Sat 10:39:00 AM 37.7429 131.7121 90° East  Level FlightAware Approximate
Sat 10:40:00 AM 37.7424 131.8860 90° East  Level FlightAware Approximate
Sat 10:41:00 AM 37.7417 132.0598 90° East  Level FlightAware Approximate
Sat 10:42:00 AM 37.7407 132.2337 90° East  Level FlightAware Approximate
Sat 10:43:00 AM 37.7394 132.4076 90° East  Level FlightAware Approximate
Sat 10:44:00 AM 37.7379 132.5815 91° East  Level FlightAware Approximate
Sat 10:45:00 AM 37.8479 132.6859 87° East  Level Estimated
Sat 10:46:00 AM 37.8268 132.8579 99° East  Level FlightAware Approximate
Sat 10:47:00 AM 37.8054 133.0299 99° East  Level FlightAware Approximate
Sat 10:48:00 AM 37.9153 133.1345 86° East  Level Estimated
Sat 10:49:00 AM 37.9120 133.3088 91° East  Level FlightAware Approximate
Sat 10:50:00 AM 37.9084 133.4830 91° East  Level FlightAware Approximate
Sat 10:51:00 AM 37.9046 133.6572 92° East  Level FlightAware Approximate
Sat 10:52:00 AM 37.9005 133.8314 92° East  Level FlightAware Approximate
Sat 10:53:00 AM 37.8961 134.0056 92° East  Level FlightAware Approximate
Sat 10:54:00 AM 37.8915 134.1798 92° East  Level FlightAware Approximate
Sat 10:55:00 AM 37.8866 134.3539 92° East  Level FlightAware Approximate
Sat 10:56:00 AM 37.8815 134.5280 92° East  Level FlightAware Approximate
Sat 10:57:00 AM 37.8761 134.7021 92° East  Level FlightAware Approximate
Sat 10:58:00 AM 37.8704 134.8762 92° East  Level FlightAware Approximate
Sat 10:59:00 AM 37.9800 134.9815 87° East  Level Estimated
Sat 11:00:00 AM 37.9772 135.1559 91° East  Level FlightAware Approximate
Sat 11:00:27 AM 37.8620 136.3290 91° East 535 616 33,000  Level FlightAware ADS-B
Sat 11:01:00 AM 37.9742 135.3303 91° East  Level FlightAware Approximate
Sat 11:01:12 AM 37.8680 136.4710 87° East 536 617 33,000  Level FlightAware ADS-B
Sat 11:01:52 AM 37.8740 136.5970 87° East 537 618 33,000  Level FlightAware ADS-B
Sat 11:02:32 AM 37.8790 136.7220 87° East 539 620 33,000  Level FlightAware ADS-B
Sat 11:03:17 AM 37.8890 136.8560 85° East 540 621 33,000  Level FlightAware ADS-B
Sat 11:03:57 AM 37.9020 136.9890 83° East 540 621 33,000  Level FlightAware ADS-B
Sat 11:04:42 AM 37.9140 137.1260 84° East 537 618 33,000  Level FlightAware ADS-B
Sat 11:05:22 AM 37.9250 137.2540 84° East 536 617 33,000  Level FlightAware ADS-B
Sat 11:06:02 AM 37.9350 137.3780 84° East 534 615 33,000  Level FlightAware ADS-B
Sat 11:06:47 AM 37.9460 137.5170 84° East 533 613 33,000  Level FlightAware ADS-B
Sat 11:07:27 AM 37.9560 137.6370 84° East 532 612 33,000  Level FlightAware ADS-B
Sat 11:08:07 AM 37.9660 137.7650 84° East 532 612 33,000  Level FlightAware ADS-B
Sat 11:08:52 AM 37.9770 137.8970 84° East 530 610 33,000  Level FlightAware ADS-B
Sat 11:09:32 AM 37.9860 138.0240 85° East 527 606 33,000  Level FlightAware ADS-B
Sat 11:10:12 AM 37.9950 138.1430 84° East 526 605 33,000  Level FlightAware ADS-B
Sat 11:10:57 AM 38.0070 138.2870 84° East 526 605 33,000  Level FlightAware ADS-B
Sat 11:11:37 AM 38.0160 138.4050 84° East 525 604 33,000  Level FlightAware ADS-B
Sat 11:12:17 AM 38.0250 138.5300 85° East 523 602 33,000  Level FlightAware ADS-B
Sat 11:13:32 AM 38.0410 138.7580 85° East 517 595 33,000  Level FlightAware ADS-B
Sat 11:14:12 AM 38.0500 138.8740 84° East 516 594 33,000  Level FlightAware ADS-B
Sat 11:16:00 AM 38.2461 139.0660 92° East  Level Estimated
Sat 11:17:00 AM 38.1774 139.2176 120° Southeast  Level FlightAware Approximate
Sat 11:18:00 AM 38.1084 139.3689 120° Southeast  Level FlightAware Approximate
Sat 11:19:00 AM 38.0393 139.5199 120° Southeast  Level FlightAware Approximate
Sat 11:20:00 AM 38.1483 139.6265 91° East  Level Estimated
Sat 11:20:02 AM 38.1200 139.9270 91° East 525 604 33,000  Level FlightAware ADS-B
Sat 11:20:42 AM 38.1270 140.0490 86° East 526 605 33,000  Level FlightAware ADS-B
Sat 11:21:27 AM 38.1360 140.1920 85° East 528 608 33,000  Level FlightAware ADS-B
Sat 11:22:07 AM 38.1430 140.3120 86° East 525 604 33,000  Level FlightAware ADS-B
Sat 11:22:52 AM 38.1510 140.4500 86° East 521 600 33,000  Level FlightAware ADS-B
Sat 11:23:32 AM 38.1580 140.5640 85° East 526 605 33,000  Level FlightAware ADS-B
Sat 11:25:02 AM 38.1740 140.8520 86° East 533 613 33,000  Level FlightAware ADS-B
Sat 11:27:00 AM 38.3877 141.0631 38° Northeast  Level Estimated
Sat 11:27:22 AM 38.1960 141.2920 38° Northeast 527 606 33,000  Level FlightAware ADS-B
Sat 11:28:02 AM 38.2020 141.4150 86° East 527 606 33,000  Level FlightAware ADS-B
Sat 11:28:47 AM 38.2090 141.5510 86° East 527 606 33,000  Level FlightAware ADS-B
Sat 11:29:32 AM 38.2160 141.6970 86° East 527 606 33,000  Level FlightAware ADS-B
Sat 11:30:12 AM 38.2220 141.8170 86° East 528 608 33,000  Level FlightAware ADS-B
Sat 11:30:57 AM 38.2280 141.9540 87° East 529 609 33,000  Level FlightAware ADS-B
Sat 11:31:37 AM 38.2330 142.0770 87° East 529 609 33,000  Level FlightAware ADS-B
Sat 11:32:17 AM 38.2390 142.2010 86° East 530 610 33,000  Level FlightAware ADS-B
Sat 11:33:02 AM 38.2440 142.3400 87° East 529 609 33,000  Level FlightAware ADS-B
Sat 11:33:37 AM 38.2490 142.4440 86° East 529 609 33,000  Level FlightAware ADS-B
Sat 11:34:22 AM 38.2540 142.5660 87° East 529 609 33,000  Level FlightAware ADS-B
Sat 11:35:02 AM 38.2580 142.6720 87° East 529 609 33,000  Level FlightAware ADS-B
Sat 11:35:52 AM 38.2630 142.8040 87° East 529 609 33,000  Level FlightAware ADS-B
Sat 11:36:32 AM 38.2680 142.9100 87° East 529 609 33,000  Level FlightAware ADS-B
Sat 11:37:12 AM 38.2720 143.0160 87° East 529 609 33,000  Level FlightAware ADS-B
Sat 11:37:52 AM 38.2780 143.2460 88° East 529 609 33,000  Level FlightAware ADS-B
Sat 11:38:37 AM 38.2830 143.3740 87° East 530 610 33,000  Level FlightAware ADS-B
Sat 11:39:32 AM 38.2870 143.5300 88° East 530 610 33,000  Level FlightAware ADS-B
Sat 11:40:12 AM 38.2900 143.6370 88° East 530 610 33,000  Level FlightAware ADS-B
Sat 11:40:52 AM 38.2930 143.7430 88° East 530 610 33,000  Level FlightAware ADS-B
Sat 11:41:42 AM 38.2960 143.8750 88° East 530 610 33,000  Level FlightAware ADS-B
Sat 11:42:22 AM 38.2990 143.9820 88° East 530 610 33,000  Level FlightAware ADS-B
Sat 11:43:02 AM 38.3020 144.0880 88° East 530 610 33,000  Level FlightAware ADS-B
Sat 11:43:42 AM 38.3050 144.1940 88° East 530 610 33,000  Level FlightAware ADS-B
Sat 11:44:22 AM 38.3080 144.3000 88° East 530 610 33,000  Level FlightAware ADS-B
Sat 11:45:12 AM 38.3120 144.4330 88° East 530 610 33,000  Level FlightAware ADS-B
Sat 11:45:52 AM 38.3150 144.5390 88° East 530 610 33,000  Level FlightAware ADS-B
Sat 11:46:32 AM 38.3170 144.6450 89° East 530 610 33,000  Level FlightAware ADS-B
Sat 11:47:12 AM 38.3200 144.7510 88° East 530 610 33,000  Level FlightAware ADS-B
Sat 11:47:52 AM 38.3230 144.8580 88° East 530 610 33,000  Level FlightAware ADS-B
Sat 11:48:42 AM 38.3270 144.9900 88° East 530 610 33,000  Level FlightAware ADS-B
Sat 11:51:00 AM 38.5762 145.2386 38° Northeast  Level Estimated
Sat 11:52:00 AM 38.6844 145.3473 38° Northeast  Level Estimated
Sat 11:53:00 AM 38.7925 145.4562 38° Northeast  Level Estimated
Sat 11:54:00 AM 38.9005 145.5655 38° Northeast  Level Estimated
Sat 11:55:00 AM 39.0084 145.6752 38° Northeast  Level Estimated
Sat 11:56:00 AM 39.1162 145.7851 38° Northeast  Level Estimated
Sat 11:57:00 AM 39.2239 145.8954 38° Northeast  Level Estimated
Sat 11:58:00 AM 39.3315 146.0061 38° Northeast  Level Estimated
Sat 11:59:00 AM 39.4390 146.1171 39° Northeast  Level Estimated
Sat 12:00:00 PM 39.5464 146.2284 39° Northeast  Level Estimated
Sat 12:01:00 PM 39.6536 146.3401 39° Northeast  Level Estimated
Sat 12:02:00 PM 39.7608 146.4521 39° Northeast  Level Estimated
Sat 12:03:00 PM 39.8679 146.5644 39° Northeast  Level Estimated
Sat 12:04:00 PM 39.9748 146.6772 39° Northeast  Level Estimated
Sat 12:05:00 PM 40.0816 146.7902 39° Northeast  Level Estimated
Sat 12:06:00 PM 40.1884 146.9037 39° Northeast  Level Estimated
Sat 12:07:00 PM 40.2950 147.0174 39° Northeast  Level Estimated
Sat 12:08:00 PM 40.4015 147.1316 39° Northeast  Level Estimated
Sat 12:09:00 PM 40.5079 147.2461 39° Northeast  Level Estimated
Sat 12:10:00 PM 40.6141 147.3609 39° Northeast  Level Estimated
Sat 12:11:00 PM 40.7203 147.4762 39° Northeast  Level Estimated
Sat 12:12:00 PM 40.8263 147.5918 40° Northeast  Level Estimated
Sat 12:13:00 PM 40.9323 147.7077 40° Northeast  Level Estimated
Sat 12:14:00 PM 41.0381 147.8241 40° Northeast  Level Estimated
Sat 12:15:00 PM 41.1438 147.9408 40° Northeast  Level Estimated
Sat 12:16:00 PM 41.2494 148.0579 40° Northeast  Level Estimated
Sat 12:17:00 PM 41.3548 148.1754 40° Northeast  Level Estimated
Sat 12:18:00 PM 41.4602 148.2932 40° Northeast  Level Estimated
Sat 12:19:00 PM 41.5654 148.4115 40° Northeast  Level Estimated
Sat 12:20:00 PM 41.6705 148.5301 40° Northeast  Level Estimated
Sat 12:21:00 PM 41.7755 148.6491 40° Northeast  Level Estimated
Sat 12:22:00 PM 41.8803 148.7685 40° Northeast  Level Estimated
Sat 12:23:00 PM 41.9850 148.8883 40° Northeast  Level Estimated
Sat 12:24:00 PM 42.0896 149.0085 40° Northeast  Level Estimated
Sat 12:25:00 PM 42.1941 149.1290 41° Northeast  Level Estimated
Sat 12:26:00 PM 42.2985 149.2500 41° Northeast  Level Estimated
Sat 12:27:00 PM 42.4027 149.3714 41° Northeast  Level Estimated
Sat 12:28:00 PM 42.5068 149.4932 41° Northeast  Level Estimated
Sat 12:29:00 PM 42.6107 149.6154 41° Northeast  Level Estimated
Sat 12:30:00 PM 42.7146 149.7380 41° Northeast  Level Estimated
Sat 12:31:00 PM 42.8183 149.8610 41° Northeast  Level Estimated
Sat 12:32:00 PM 42.9219 149.9844 41° Northeast  Level Estimated
Sat 12:33:00 PM 43.0253 150.1083 41° Northeast  Level Estimated
Sat 12:34:00 PM 43.1286 150.2325 41° Northeast  Level Estimated
Sat 12:35:00 PM 43.2318 150.3572 41° Northeast  Level Estimated
Sat 12:36:00 PM 43.3348 150.4823 41° Northeast  Level Estimated
Sat 12:37:00 PM 43.4377 150.6078 42° Northeast  Level Estimated
Sat 12:38:00 PM 43.5405 150.7338 42° Northeast  Level Estimated
Sat 12:39:00 PM 43.6431 150.8602 42° Northeast  Level Estimated
Sat 12:40:00 PM 43.7456 150.9870 42° Northeast  Level Estimated
Sat 12:41:00 PM 43.8479 151.1142 42° Northeast  Level Estimated
Sat 12:42:00 PM 43.9501 151.2419 42° Northeast  Level Estimated
Sat 12:43:00 PM 44.0522 151.3701 42° Northeast  Level Estimated
Sat 12:44:00 PM 44.1541 151.4986 42° Northeast  Level Estimated
Sat 12:45:00 PM 44.2558 151.6276 42° Northeast  Level Estimated
Sat 12:46:00 PM 44.3575 151.7571 42° Northeast  Level Estimated
Sat 12:47:00 PM 44.4589 151.8870 42° Northeast  Level Estimated
Sat 12:48:00 PM 44.5603 152.0174 42° Northeast  Level Estimated
Sat 12:49:00 PM 44.6614 152.1482 43° Northeast  Level Estimated
Sat 12:50:00 PM 44.7625 152.2795 43° Northeast  Level Estimated
Sat 12:51:00 PM 44.8634 152.4112 43° Northeast  Level Estimated
Sat 12:52:00 PM 44.9641 152.5434 43° Northeast  Level Estimated
Sat 12:53:00 PM 45.0647 152.6761 43° Northeast  Level Estimated
Sat 12:54:00 PM 45.1651 152.8092 43° Northeast  Level Estimated
Sat 12:55:00 PM 45.2653 152.9428 43° Northeast  Level Estimated
Sat 12:56:00 PM 45.3655 153.0768 43° Northeast  Level Estimated
Sat 12:57:00 PM 45.4654 153.2114 43° Northeast  Level Estimated
Sat 12:58:00 PM 45.5652 153.3464 43° Northeast  Level Estimated
Sat 12:59:00 PM 45.6648 153.4819 44° Northeast  Level Estimated
Sat 01:00:00 PM 45.7643 153.6179 44° Northeast  Level Estimated
Sat 01:01:00 PM 45.8636 153.7544 44° Northeast  Level Estimated
Sat 01:02:00 PM 45.9627 153.8913 44° Northeast  Level Estimated
Sat 01:03:00 PM 46.0617 154.0288 44° Northeast  Level Estimated
Sat 01:04:00 PM 46.1605 154.1667 44° Northeast  Level Estimated
Sat 01:05:00 PM 46.2592 154.3052 44° Northeast  Level Estimated
Sat 01:06:00 PM 46.3577 154.4441 44° Northeast  Level Estimated
Sat 01:07:00 PM 46.4560 154.5836 44° Northeast  Level Estimated
Sat 01:08:00 PM 46.5541 154.7235 44° Northeast  Level Estimated
Sat 01:09:00 PM 46.6521 154.8639 45° Northeast  Level Estimated
Sat 01:10:00 PM 46.7499 155.0049 45° Northeast  Level Estimated
Sat 01:11:00 PM 46.8475 155.1464 45° Northeast  Level Estimated
Sat 01:12:00 PM 46.9450 155.2884 45° Northeast  Level Estimated
Sat 01:13:00 PM 47.0423 155.4309 45° Northeast  Level Estimated
Sat 01:14:00 PM 47.1394 155.5739 45° Northeast  Level Estimated
Sat 01:15:00 PM 47.2363 155.7174 45° Northeast  Level Estimated
Sat 01:16:00 PM 47.3330 155.8615 45° Northeast  Level Estimated
Sat 01:17:00 PM 47.4296 156.0061 45° Northeast  Level Estimated
Sat 01:18:00 PM 47.5260 156.1512 45° Northeast  Level Estimated
Sat 01:19:00 PM 47.6221 156.2969 46° Northeast  Level Estimated
Sat 01:20:00 PM 47.7182 156.4431 46° Northeast  Level Estimated
Sat 01:21:00 PM 47.8140 156.5898 46° Northeast  Level Estimated
Sat 01:22:00 PM 47.9096 156.7371 46° Northeast  Level Estimated
Sat 01:23:00 PM 48.0050 156.8849 46° Northeast  Level Estimated
Sat 01:24:00 PM 48.1003 157.0333 46° Northeast  Level Estimated
Sat 01:25:00 PM 48.1954 157.1823 46° Northeast  Level Estimated
Sat 01:26:00 PM 48.2902 157.3317 46° Northeast  Level Estimated
Sat 01:27:00 PM 48.3849 157.4818 46° Northeast  Level Estimated
Sat 01:28:00 PM 48.4794 157.6324 47° Northeast  Level Estimated
Sat 01:29:00 PM 48.5737 157.7835 47° Northeast  Level Estimated
Sat 01:29:53 PM 48.2833 160.6833 54° Northeast 518 596 33,000  Level Anchorage Center
Sat 01:30:00 PM 48.6677 157.9352 47° Northeast  Level Estimated
Sat 01:31:00 PM 48.7616 158.0875 47° Northeast  Level Estimated
Sat 01:32:00 PM 48.8553 158.2404 47° Northeast  Level Estimated
Sat 01:33:00 PM 48.9488 158.3938 47° Northeast  Level Estimated
Sat 01:34:00 PM 49.0420 158.5478 47° Northeast  Level Estimated
Sat 01:34:44 PM 48.7000 161.5667 55° Northeast 516 594 33,000  Level Anchorage Center
Sat 01:35:00 PM 49.1351 158.7024 47° Northeast  Level Estimated
Sat 01:36:00 PM 48.7894 161.7620 55° Northeast 518 596 33,000  Level FlightAware Transoceanic
Sat 01:37:00 PM 48.8728 161.9439 55° Northeast 518 596 33,000  Level FlightAware Transoceanic
Sat 01:38:00 PM 48.9558 162.1264 55° Northeast 518 596 33,000  Level FlightAware Transoceanic
Sat 01:39:00 PM 49.0386 162.3095 55° Northeast 518 596 33,000  Level FlightAware Transoceanic
Sat 01:40:00 PM 49.1211 162.4932 56° Northeast 518 596 33,000  Level FlightAware Transoceanic
Sat 01:41:00 PM 49.1993 162.6673 56° Northeast 516 594 33,000  Level FlightAware Transoceanic
Sat 01:42:00 PM 49.2815 162.8529 56° Northeast 516 594 33,000  Level FlightAware Transoceanic
Sat 01:43:00 PM 49.3634 163.0391 56° Northeast 516 594 33,000  Level FlightAware Transoceanic
Sat 01:44:00 PM 49.4450 163.2259 56° Northeast 516 594 33,000  Level FlightAware Transoceanic
Sat 01:44:20 PM 49.4833 163.2833 57° Northeast 505 581 33,000  Level Anchorage Center
Sat 01:45:00 PM 49.5263 163.4133 56° Northeast 516 594 33,000  Level FlightAware Transoceanic
Sat 01:46:00 PM 49.6073 163.6014 56° Northeast 516 594 33,000  Level FlightAware Transoceanic
Sat 01:47:00 PM 49.6879 163.7901 57° Northeast 516 594 33,000  Level FlightAware Transoceanic
Sat 01:48:00 PM 49.7683 163.9794 57° Northeast 516 594 33,000  Level FlightAware Transoceanic
Sat 01:49:00 PM 49.8484 164.1694 57° Northeast 516 594 33,000  Level FlightAware Transoceanic
Sat 01:50:00 PM 49.9470 164.3894 57° Northeast 505 581 33,000  Level FlightAware Transoceanic
Sat 01:51:00 PM 50.0233 164.5758 58° Northeast 505 581 33,000  Level FlightAware Transoceanic
Sat 01:52:00 PM 50.0992 164.7628 58° Northeast 505 581 33,000  Level FlightAware Transoceanic
Sat 01:53:00 PM 50.1749 164.9503 58° Northeast 505 581 33,000  Level FlightAware Transoceanic
Sat 01:53:56 PM 50.2000 165.0000 59° Northeast 499 574 33,000  Level Anchorage Center
Sat 01:54:00 PM 50.2502 165.1385 58° Northeast 505 581 33,000  Level FlightAware Transoceanic
Sat 01:55:00 PM 50.3253 165.3273 58° Northeast 505 581 33,000  Level FlightAware Transoceanic
Sat 01:56:00 PM 50.4000 165.5167 55° Northeast 505 581 33,000  Level FlightAware Transoceanic
Sat 01:56:47 PM 50.4000 165.5167 55° Northeast 502 578 33,000  Level Anchorage Center
Sat 01:57:00 PM 50.4789 165.6916 55° Northeast 505 581 33,000  Level FlightAware Transoceanic
Sat 01:58:00 PM 50.5575 165.8672 55° Northeast 505 581 33,000  Level FlightAware Transoceanic
Sat 01:59:00 PM 50.6358 166.0433 55° Northeast 505 581 33,000  Level FlightAware Transoceanic
Sat 02:00:00 PM 50.6415 166.0562 55° Northeast 499 574 33,000  Level FlightAware Transoceanic
Sat 02:01:00 PM 50.7215 166.2373 55° Northeast 499 574 33,000  Level FlightAware Transoceanic
Sat 02:02:00 PM 50.8012 166.4190 55° Northeast 499 574 33,000  Level FlightAware Transoceanic
Sat 02:03:00 PM 50.8806 166.6013 55° Northeast 502 578 33,000  Level FlightAware Transoceanic
Sat 02:03:32 PM 50.9000 166.7667 55° Northeast 498 573 33,000  Level Anchorage Center
Sat 02:04:00 PM 50.9597 166.7842 56° Northeast 502 578 33,000  Level FlightAware Transoceanic
Sat 02:05:00 PM 51.0385 166.9677 56° Northeast 502 578 33,000  Level FlightAware Transoceanic
Sat 02:06:00 PM 51.1170 167.1519 56° Northeast 502 578 33,000  Level FlightAware Transoceanic
Sat 02:07:00 PM 51.1953 167.3367 56° Northeast 502 578 33,000  Level FlightAware Transoceanic
Sat 02:08:00 PM 51.2732 167.5222 56° Northeast 502 578 33,000  Level FlightAware Transoceanic
Sat 02:09:00 PM 51.3657 167.8470 56° Northeast 498 573 33,000  Level FlightAware Transoceanic
Sat 02:10:00 PM 51.4423 168.0292 56° Northeast 498 573 33,000  Level FlightAware Transoceanic
Sat 02:11:00 PM 51.5187 168.2120 56° Northeast 498 573 33,000  Level FlightAware Transoceanic
Sat 02:12:00 PM 51.5947 168.3954 56° Northeast 498 573 33,000  Level FlightAware Transoceanic
Sat 02:12:53 PM 51.5500 168.5000 57° Northeast 500 575 33,000  Level Anchorage Center
Sat 02:13:00 PM 51.6705 168.5795 57° Northeast 498 573 33,000  Level FlightAware Transoceanic
Sat 02:13:53 PM 51.6167 168.7000 62° Northeast 470 541 33,000  Level Anchorage Center
Sat 02:14:00 PM 51.7460 168.7641 57° Northeast 498 573 33,000  Level FlightAware Transoceanic
Sat 02:14:53 PM 51.6833 168.8833 60° Northeast 500 575 33,000  Level Anchorage Center
Sat 02:15:00 PM 51.8212 168.9494 57° Northeast 498 573 33,000  Level FlightAware Transoceanic
Sat 02:15:53 PM 51.7500 169.0833 62° Northeast 500 575 33,000  Level Anchorage Center
Sat 02:16:00 PM 51.8961 169.1353 57° Northeast 498 573 33,000  Level FlightAware Transoceanic
Sat 02:16:53 PM 51.8167 169.2500 57° Northeast 500 575 33,000  Level Anchorage Center
Sat 02:17:00 PM 51.9707 169.3218 57° Northeast 498 573 33,000  Level FlightAware Transoceanic
Sat 02:17:53 PM 51.8833 169.4667 63° Northeast 510 587 33,000  Level Anchorage Center
Sat 02:18:00 PM 52.0451 169.5089 57° Northeast 498 573 33,000  Level FlightAware Transoceanic
Sat 02:18:53 PM 51.9333 169.6333 64° Northeast 490 564 33,000  Level Anchorage Center
Sat 02:19:53 PM 52.0167 169.8500 58° Northeast 510 587 33,000  Level Anchorage Center
Sat 02:20:53 PM 52.0667 170.0167 64° Northeast 500 575 33,000  Level Anchorage Center
Sat 02:21:54 PM 52.1500 170.2333 58° Northeast 500 575 33,000  Level Anchorage Center
Sat 02:22:54 PM 52.2167 170.4500 63° Northeast 500 575 33,000  Level Anchorage Center
Sat 02:23:54 PM 52.2833 170.6167 57° Northeast 500 575 33,000  Level Anchorage Center
Sat 02:24:53 PM 52.3667 170.8167 56° Northeast 500 575 33,000  Level Anchorage Center
Sat 02:25:54 PM 52.4500 170.9833 51° Northeast 500 575 33,000  Level Anchorage Center
Sat 02:26:54 PM 52.5333 171.1833 56° Northeast 490 564 33,000  Level Anchorage Center
Sat 02:27:54 PM 52.6000 171.3333 54° Northeast 510 587 33,000  Level Anchorage Center
Sat 02:28:54 PM 52.7000 171.5333 50° Northeast 510 587 33,000  Level Anchorage Center
Sat 02:29:54 PM 52.7667 171.7000 56° Northeast 490 564 33,000  Level Anchorage Center
Sat 02:30:54 PM 52.8500 171.9000 55° Northeast 500 575 33,000  Level Anchorage Center
Sat 02:31:54 PM 52.9167 172.0667 56° Northeast 500 575 33,000  Level Anchorage Center
Sat 02:32:54 PM 53.0000 172.2833 57° Northeast 500 575 33,000  Level Anchorage Center
Sat 02:33:54 PM 53.1000 172.4833 50° Northeast 500 575 33,000  Level Anchorage Center
Sat 02:34:54 PM 53.1667 172.6500 56° Northeast 490 564 33,000  Level Anchorage Center
Sat 02:35:54 PM 53.2500 172.8500 55° Northeast 490 564 33,000  Level Anchorage Center
Sat 02:36:54 PM 53.3167 173.0167 56° Northeast 490 564 33,000  Level Anchorage Center
Sat 02:37:55 PM 53.4000 173.2333 57° Northeast 500 575 33,000  Level Anchorage Center
Sat 02:38:55 PM 53.4667 173.4000 56° Northeast 510 587 33,000  Level Anchorage Center
Sat 02:39:55 PM 53.5500 173.6167 57° Northeast 510 587 33,000  Level Anchorage Center
Sat 02:40:55 PM 53.6167 173.7833 56° Northeast 500 575 33,000  Level Anchorage Center
Sat 02:41:55 PM 53.7000 174.0000 57° Northeast 490 564 33,000 350 Level Anchorage Center
Sat 02:42:55 PM 53.7667 174.1833 58° Northeast 510 587 33,700 500 Climbing Anchorage Center
Sat 02:43:55 PM 53.8500 174.4000 57° Northeast 500 575 34,000 150 Climbing Anchorage Center
Sat 02:44:55 PM 53.9167 174.5833 58° Northeast 500 575 34,000  Level Anchorage Center
Sat 02:45:55 PM 54.0000 174.8000 57° Northeast 500 575 34,000  Level Anchorage Center
Sat 02:46:55 PM 54.0833 175.0167 57° Northeast 500 575 34,000  Level Anchorage Center
Sat 02:47:55 PM 54.1333 175.1833 63° Northeast 490 564 34,000  Level Anchorage Center
Sat 02:48:55 PM 54.2167 175.4167 59° Northeast 500 575 34,000  Level Anchorage Center
Sat 02:49:55 PM 54.2833 175.6000 58° Northeast 500 575 34,000  Level Anchorage Center
Sat 02:50:55 PM 54.3667 175.8167 57° Northeast 500 575 34,000  Level Anchorage Center
Sat 02:51:55 PM 54.4167 175.9833 63° Northeast 490 564 34,000  Level Anchorage Center
Sat 02:52:55 PM 54.5000 176.2167 58° Northeast 500 575 34,000  Level Anchorage Center
Sat 02:53:56 PM 54.5667 176.4000 58° Northeast 500 575 34,000  Level Anchorage Center
Sat 02:54:56 PM 54.6333 176.6167 62° Northeast 500 575 34,000  Level Anchorage Center
Sat 02:55:56 PM 54.7000 176.8000 58° Northeast 500 575 34,000  Level Anchorage Center
Sat 02:56:56 PM 54.7833 177.0333 58° Northeast 500 575 34,000  Level Anchorage Center
Sat 02:57:56 PM 54.8500 177.2500 62° Northeast 500 575 34,000  Level Anchorage Center
Sat 02:58:56 PM 54.9167 177.4333 58° Northeast 500 575 34,000  Level Anchorage Center
Sat 02:59:56 PM 54.9667 177.6333 66° East 500 575 34,000  Level Anchorage Center
Sat 03:01:01 PM 55.0833 177.8833 51° Northeast 500 575 34,000  Level Anchorage Center
Sat 03:03:00 PM 55.2034 178.3209 64° Northeast  Level FlightAware Approximate
Sat 03:04:19 PM 55.3000 178.6167 61° Northeast 507 583 34,000  Level Anchorage Center
Sat 03:10:00 PM 55.6953 179.9158 62° Northeast 507 583 34,000  Level FlightAware Transoceanic
Sat 03:11:00 PM 55.7599 -179.8651 62° Northeast 507 583 34,000  Level FlightAware Transoceanic
Sat 03:11:54 PM 55.7167 -180.0000 62° Northeast 511 588 34,000  Level Anchorage Center
Sat 03:12:00 PM 55.8240 -179.6453 63° Northeast 507 583 34,000  Level FlightAware Transoceanic
Sat 03:13:00 PM 55.8878 -179.4248 63° Northeast 507 583 34,000  Level FlightAware Transoceanic
Sat 03:14:00 PM 55.9512 -179.2035 63° Northeast 507 583 34,000  Level FlightAware Transoceanic
Sat 03:15:00 PM 56.0141 -178.9816 63° Northeast 507 583 34,000  Level FlightAware Transoceanic
Sat 03:16:00 PM 56.0767 -178.7589 63° Northeast 507 583 34,000  Level FlightAware Transoceanic
Sat 03:17:00 PM 56.1389 -178.5355 64° Northeast 507 583 34,000  Level FlightAware Transoceanic
Sat 03:18:00 PM 56.1666 -178.4248 64° Northeast 511 588 34,000  Level FlightAware Transoceanic
Sat 03:19:00 PM 56.2292 -178.1967 64° Northeast 511 588 34,000  Level FlightAware Transoceanic
Sat 03:20:00 PM 56.2914 -177.9680 64° Northeast 511 588 34,000  Level FlightAware Transoceanic
Sat 03:20:20 PM 56.3333 -177.8000 64° Northeast 517 595 34,000  Level Anchorage Center
Sat 03:21:00 PM 56.3532 -177.7385 64° Northeast 511 588 34,000  Level FlightAware Transoceanic
Sat 03:22:00 PM 56.4145 -177.5082 64° Northeast 511 588 34,000  Level FlightAware Transoceanic
Sat 03:23:00 PM 56.4754 -177.2772 65° Northeast 511 588 34,000  Level FlightAware Transoceanic
Sat 03:24:00 PM 56.5359 -177.0455 65° Northeast 511 588 34,000  Level FlightAware Transoceanic
Sat 03:25:00 PM 56.5960 -176.8130 65° Northeast 511 588 34,000  Level FlightAware Transoceanic
Sat 03:26:00 PM 56.6877 -176.4430 65° Northeast 517 595 34,000  Level FlightAware Transoceanic
Sat 03:26:36 PM 56.7167 -176.3000 65° Northeast 521 600 34,000  Level Anchorage Center
Sat 03:27:00 PM 56.7453 -176.2144 65° Northeast 517 595 34,000  Level FlightAware Transoceanic
Sat 03:28:00 PM 56.8025 -175.9850 66° East 517 595 34,000  Level FlightAware Transoceanic
Sat 03:29:00 PM 56.8592 -175.7550 66° East 517 595 34,000  Level FlightAware Transoceanic
Sat 03:29:52 PM 56.9167 -175.5333 66° East 521 600 34,000  Level Anchorage Center
Sat 03:30:00 PM 56.9156 -175.5243 66° East 517 595 34,000  Level FlightAware Transoceanic
Sat 03:31:00 PM 56.9715 -175.2928 66° East 517 595 34,000  Level FlightAware Transoceanic
Sat 03:32:00 PM 57.0181 -175.0753 66° East 521 600 34,000  Level FlightAware Transoceanic
Sat 03:32:33 PM 57.0500 -174.8833 68° East 510 587 34,000  Level Anchorage Center
Sat 03:33:00 PM 57.0769 -174.8280 66° East 521 600 34,000 1,000 Level FlightAware Transoceanic
Sat 03:33:33 PM 57.1167 -174.6333 64° Northeast 510 587 35,000  Climbing Anchorage Center
Sat 03:34:00 PM 57.1352 -174.5799 67° East 521 600 34,000  Descending FlightAware Transoceanic
Sat 03:34:33 PM 57.1667 -174.4000 68° East 510 587 35,000  Climbing Anchorage Center
Sat 03:35:00 PM 57.1931 -174.3311 67° East 521 600 34,000  Descending FlightAware Transoceanic
Sat 03:35:33 PM 57.2167 -174.1500 70° East 510 587 35,000  Climbing Anchorage Center
Sat 03:36:00 PM 57.2623 -174.0573 67° East 521 600 34,000  Descending FlightAware Transoceanic
Sat 03:36:33 PM 57.2667 -173.9000 70° East 520 598 35,000  Climbing Anchorage Center
Sat 03:37:00 PM 57.3182 -173.8086 68° East 521 600 34,000  Descending FlightAware Transoceanic
Sat 03:37:33 PM 57.3333 -173.6667 62° Northeast 510 587 35,000 645 Climbing Anchorage Center
Sat 03:38:33 PM 57.3833 -173.4167 70° East 510 587 35,000  Level Anchorage Center
Sat 03:39:33 PM 57.4333 -173.1667 70° East 500 575 35,000  Level Anchorage Center
Sat 03:40:33 PM 57.4833 -172.9333 68° East 500 575 35,000  Level Anchorage Center
Sat 03:41:33 PM 57.5500 -172.6833 63° Northeast 530 610 35,000  Level Anchorage Center
Sat 03:42:33 PM 57.6000 -172.4333 69° East 490 564 35,000  Level Anchorage Center
Sat 03:43:33 PM 57.6500 -172.1833 69° East 510 587 35,000  Level Anchorage Center
Sat 03:45:33 PM 57.7500 -171.7500 66° East 510 587 35,000  Level Anchorage Center
Sat 03:46:34 PM 57.8000 -171.4833 71° East 510 587 35,000  Level Anchorage Center
Sat 03:47:34 PM 57.8500 -171.2333 69° East 490 564 35,000  Level Anchorage Center
Sat 03:48:34 PM 57.9000 -170.9833 69° East 510 587 35,000  Level Anchorage Center
Sat 03:49:34 PM 57.9500 -170.7333 69° East 500 575 35,000  Level Anchorage Center
Sat 03:50:34 PM 58.0000 -170.4833 69° East 500 575 35,000  Level Anchorage Center
Sat 03:51:34 PM 58.0500 -170.2333 69° East 510 587 35,000  Level Anchorage Center
Sat 03:54:34 PM 58.2167 -169.4833 67° East 500 575 35,000  Level Anchorage Center
Sat 03:55:34 PM 58.2667 -169.2333 69° East 510 587 35,000  Level Anchorage Center
Sat 03:56:34 PM 58.3167 -168.9833 69° East 510 587 35,000  Level Anchorage Center
Sat 03:57:34 PM 58.3667 -168.7333 69° East 510 587 35,000  Level Anchorage Center
Sat 03:58:34 PM 58.4167 -168.4667 70° East 510 587 35,000  Level Anchorage Center
Sat 03:59:34 PM 58.4667 -168.2167 69° East 510 587 35,000  Level Anchorage Center
Sat 04:00:17 PM 58.5167 -168.0167 64° Northeast 510 587 35,000  Level Anchorage Center
Sat 04:01:17 PM 58.5667 -167.7500 70° East 510 587 35,000  Level Anchorage Center
Sat 04:02:17 PM 58.6167 -167.5000 69° East 510 587 35,000  Level Anchorage Center
Sat 04:02:35 PM 58.6167 -167.4500 90° East 510 587 35,000  Level Anchorage Center
Sat 04:03:35 PM 58.6667 -167.1833 70° East 510 587 35,000  Level Anchorage Center
Sat 04:04:35 PM 58.7167 -166.9167 70° East 510 587 35,000  Level Anchorage Center
Sat 04:05:35 PM 58.7667 -166.6500 70° East 520 598 35,000  Level Anchorage Center
Sat 04:06:35 PM 58.8167 -166.3833 70° East 510 587 35,000  Level Anchorage Center
Sat 04:07:35 PM 58.8667 -166.1167 70° East 530 610 35,000  Level Anchorage Center
Sat 04:08:18 PM 58.8833 -165.9667 78° East 520 598 35,000  Level Anchorage Center
Sat 04:09:18 PM 58.9333 -165.7000 70° East 510 587 35,000  Level Anchorage Center
Sat 04:10:18 PM 58.9833 -165.4333 70° East 510 587 35,000  Level Anchorage Center
Sat 04:11:18 PM 59.0167 -165.1667 76° East 520 598 35,000  Level Anchorage Center
Sat 04:12:18 PM 59.0667 -164.9000 70° East 510 587 35,000  Level Anchorage Center
Sat 04:13:18 PM 59.1167 -164.6333 70° East 510 587 35,000  Level Anchorage Center
Sat 04:14:18 PM 59.1667 -164.3667 70° East 520 598 35,000  Level Anchorage Center
Sat 04:15:18 PM 59.2000 -164.1000 76° East 510 587 35,000  Level Anchorage Center
Sat 04:16:19 PM 59.2500 -163.8333 70° East 510 587 35,000  Level Anchorage Center
Sat 04:17:19 PM 59.2833 -163.5500 77° East 520 598 35,000  Level Anchorage Center
Sat 04:18:18 PM 59.3333 -163.2833 70° East 510 587 35,000  Level Anchorage Center
Sat 04:19:19 PM 59.3667 -163.0000 77° East 520 598 35,000  Level Anchorage Center
Sat 04:20:19 PM 59.4167 -162.7333 70° East 510 587 35,000  Level Anchorage Center
Sat 04:21:19 PM 59.4667 -162.4667 70° East 510 587 35,000  Level Anchorage Center
Sat 04:22:19 PM 59.5000 -162.2000 76° East 510 587 35,000  Level Anchorage Center
Sat 04:23:20 PM 59.5500 -161.9333 70° East 510 587 35,000  Level Anchorage Center
Sat 04:24:19 PM 59.6000 -161.6500 71° East 520 598 35,000  Level Anchorage Center
Sat 04:25:20 PM 59.6333 -161.3833 76° East 510 587 35,000  Level Anchorage Center
Sat 04:26:20 PM 59.6833 -161.1000 71° East 520 598 35,000  Level Anchorage Center
Sat 04:27:20 PM 59.7333 -160.8333 69° East 520 598 35,000  Level Anchorage Center
Sat 04:28:20 PM 59.7667 -160.5500 77° East 520 598 35,000  Level Anchorage Center
Sat 04:29:20 PM 59.8167 -160.2667 71° East 530 610 35,000  Level Anchorage Center
Sat 04:30:20 PM 59.8500 -159.9833 77° East 520 598 35,000  Level Anchorage Center
Sat 04:31:20 PM 59.8833 -159.7000 77° East 530 610 35,000  Level Anchorage Center
Sat 04:32:20 PM 59.9333 -159.4167 70° East 520 598 35,000  Level Anchorage Center
Sat 04:33:21 PM 59.9667 -159.1333 77° East 520 598 35,000  Level Anchorage Center
Sat 04:34:21 PM 60.0000 -158.9000 74° East 530 610 35,000  Level Anchorage Center
Sat 04:35:20 PM 60.0500 -158.5667 73° East 520 598 35,000  Level Anchorage Center
Sat 04:36:21 PM 60.0833 -158.2833 77° East 520 598 35,000  Level Anchorage Center
Sat 04:37:21 PM 60.1167 -158.0000 77° East 520 598 35,000  Level Anchorage Center
Sat 04:38:21 PM 60.1500 -157.7167 77° East 520 598 35,000  Level Anchorage Center
Sat 04:39:21 PM 60.1833 -157.4333 77° East 520 598 35,000  Level Anchorage Center
Sat 04:40:21 PM 60.2167 -157.1500 77° East 520 598 35,000  Level Anchorage Center
Sat 04:41:21 PM 60.2500 -156.8667 77° East 520 598 35,000  Level Anchorage Center
Sat 04:42:22 PM 60.2833 -156.5833 77° East 530 610 35,000  Level Anchorage Center
Sat 04:43:21 PM 60.3167 -156.2833 77° East 530 610 35,000  Level Anchorage Center
Sat 04:44:21 PM 60.3500 -156.0000 77° East 530 610 35,000 -330 Level Anchorage Center
Sat 04:50:37 PM 60.5640 -154.1810 77° East 495 570 32,600 -527 Descending FlightAware ADS-B
Sat 04:51:22 PM 60.5910 -153.9740 75° East 476 548 31,300 -1,624 Descending FlightAware ADS-B
Sat 04:52:02 PM 60.6130 -153.8030 75° East 464 534 30,300 -1,520 Descending FlightAware ADS-B
Sat 04:52:37 PM 60.6320 -153.6570 75° East 453 521 29,400 -1,624 Descending FlightAware ADS-B
Sat 04:53:27 PM 60.6570 -153.4560 76° East 438 504 28,000 -1,733 Descending FlightAware ADS-B
Sat 04:54:07 PM 60.6760 -153.3000 76° East 431 496 26,800 -1,835 Descending FlightAware ADS-B
Sat 04:54:52 PM 60.6980 -153.1180 76° East 424 488 25,400 -1,835 Descending FlightAware ADS-B
Sat 04:55:32 PM 60.7170 -152.9660 76° East 422 486 24,200 -1,800 Descending FlightAware ADS-B
Sat 04:56:12 PM 60.7350 -152.8100 77° East 415 478 23,000 -1,765 Descending FlightAware ADS-B
Sat 04:56:57 PM 60.7560 -152.6360 76° East 407 468 21,700 -2,329 Descending FlightAware ADS-B
Sat 04:57:37 PM 60.7730 -152.4850 77° East 425 489 19,700 -2,188 Descending FlightAware ADS-B
Sat 04:58:22 PM 60.7940 -152.3060 76° East 420 483 18,600 -1,553 Descending FlightAware ADS-B
Sat 04:59:02 PM 60.8110 -152.1570 77° East 413 475 17,500 -1,575 Descending FlightAware ADS-B
Sat 04:59:42 PM 60.8290 -152.0040 76° East 406 467 16,500 -1,553 Descending FlightAware ADS-B
Sat 05:00:27 PM 60.8470 -151.8350 78° East 394 453 15,300 -1,533 Descending FlightAware ADS-B
Sat 05:01:12 PM 60.8650 -151.6760 77° East 389 448 14,200 -1,520 Descending FlightAware ADS-B
Sat 05:01:42 PM 60.8770 -151.5670 77° East 384 442 13,400 -1,520 Descending FlightAware ADS-B
Sat 05:02:27 PM 60.8940 -151.4110 77° East 377 434 12,300 -1,412 Descending FlightAware ADS-B
Sat 05:03:07 PM 60.9180 -151.2760 70° East 370 426 11,400 -1,425 Descending FlightAware ADS-B
Sat 05:03:47 PM 60.9470 -151.1470 65° Northeast 358 412 10,400 -1,457 Descending FlightAware ADS-B
Sat 05:04:17 PM 60.9690 -151.0600 62° Northeast 348 400 9,700 -933 Descending FlightAware ADS-B
Sat 05:04:32 PM 60.9850 -151.0250 47° Northeast 333 383 9,700 -667 Level FlightAware ADS-B
Sat 05:05:02 PM 61.0180 -150.9650 41° Northeast 317 365 9,200 -1,091 Descending FlightAware ADS-B
Sat 05:05:27 PM 61.0440 -150.9150 43° Northeast 299 344 8,700 -1,200 Descending FlightAware ADS-B
Sat 05:05:57 PM 61.0750 -150.8580 42° Northeast 278 320 8,100 -1,418 Descending FlightAware ADS-B
Sat 05:06:22 PM 61.0970 -150.8160 43° Northeast 272 313 7,400 -1,636 Descending FlightAware ADS-B
Sat 05:06:52 PM 61.1250 -150.7630 42° Northeast 268 308 6,600 -1,400 Descending FlightAware ADS-B
Sat 05:07:22 PM 61.1480 -150.7060 50° Northeast 264 304 6,000 -1,200 Descending FlightAware ADS-B
Sat 05:07:47 PM 61.1590 -150.6460 69° East 260 299 5,500 -1,309 Descending FlightAware ADS-B
Sat 05:08:17 PM 61.1660 -150.5730 79° East 252 290 4,800 -1,091 Descending FlightAware ADS-B
Sat 05:08:42 PM 61.1660 -150.5160 90° East 235 270 4,500 -873 Descending FlightAware ADS-B
Sat 05:09:12 PM 61.1670 -150.4520 88° East 219 252 4,000 -982 Descending FlightAware ADS-B
Sat 05:09:37 PM 61.1670 -150.4000 90° East 203 234 3,600 -873 Descending FlightAware ADS-B
Sat 05:10:07 PM 61.1670 -150.3440 90° East 188 216 3,200 -900 Descending FlightAware ADS-B
Sat 05:10:37 PM 61.1670 -150.2910 90° East 187 215 2,700 -982 Descending FlightAware ADS-B
Sat 05:11:02 PM 61.1670 -150.2490 90° East 179 206 2,300 -982 Descending FlightAware ADS-B
Sat 05:11:32 PM 61.1670 -150.1980 90° East 167 192 1,800 -933 Descending FlightAware ADS-B
Sat 05:11:47 PM 61.1680 -150.1770 84° East 163 188 1,600 -857 Descending FlightAware ADS-B
Sat 05:12:07 PM 61.1680 -150.1430 90° East 163 188 1,300 -873 Descending FlightAware ADS-B
Sat 05:12:42 PM 61.1680 -150.0880 90° East 165 190 800 -900 Descending FlightAware ADS-B
Sat 05:13:07 PM 61.1680 -150.0500 90° East 162 186 400 -960 Descending FlightAware ADS-B

Login

Don't have an account? Register now (free) for customized features, flight alerts, and more!